sensor_id;sensor_type;location;lat;lon;timestamp;P1;durP1;ratioP1;P2;durP2;ratioP2
14592;SDS011;7383;52.354;9.756;2023-02-01T00:00:50;8.23;;;3.20;;
14592;SDS011;7383;52.354;9.756;2023-02-01T00:03:16;10.50;;;3.25;;
14592;SDS011;7383;52.354;9.756;2023-02-01T00:05:43;9.02;;;3.70;;
14592;SDS011;7383;52.354;9.756;2023-02-01T00:08:11;9.15;;;3.03;;
14592;SDS011;7383;52.354;9.756;2023-02-01T00:10:37;11.73;;;3.28;;
14592;SDS011;7383;52.354;9.756;2023-02-01T00:13:06;9.43;;;2.85;;
14592;SDS011;7383;52.354;9.756;2023-02-01T00:15:35;10.35;;;3.00;;
14592;SDS011;7383;52.354;9.756;2023-02-01T00:18:02;8.35;;;2.80;;
14592;SDS011;7383;52.354;9.756;2023-02-01T00:20:30;8.27;;;2.72;;
14592;SDS011;7383;52.354;9.756;2023-02-01T00:22:58;7.95;;;3.08;;
14592;SDS011;7383;52.354;9.756;2023-02-01T00:25:26;8.68;;;3.25;;
14592;SDS011;7383;52.354;9.756;2023-02-01T00:27:56;8.55;;;3.15;;
14592;SDS011;7383;52.354;9.756;2023-02-01T00:30:24;8.68;;;2.80;;
14592;SDS011;7383;52.354;9.756;2023-02-01T00:32:52;10.77;;;2.90;;
14592;SDS011;7383;52.354;9.756;2023-02-01T00:35:21;11.95;;;3.28;;
14592;SDS011;7383;52.354;9.756;2023-02-01T00:37:47;11.70;;;2.92;;
14592;SDS011;7383;52.354;9.756;2023-02-01T00:40:14;9.07;;;3.10;;
14592;SDS011;7383;52.354;9.756;2023-02-01T00:42:41;8.82;;;2.72;;
14592;SDS011;7383;52.354;9.756;2023-02-01T00:45:08;8.32;;;2.90;;
14592;SDS011;7383;52.354;9.756;2023-02-01T00:47:35;8.55;;;2.67;;
14592;SDS011;7383;52.354;9.756;2023-02-01T00:50:03;13.45;;;3.85;;
14592;SDS011;7383;52.354;9.756;2023-02-01T00:52:30;11.57;;;3.95;;
14592;SDS011;7383;52.354;9.756;2023-02-01T00:54:57;8.23;;;3.33;;
14592;SDS011;7383;52.354;9.756;2023-02-01T00:57:23;9.15;;;4.05;;
14592;SDS011;7383;52.354;9.756;2023-02-01T00:59:50;7.53;;;2.95;;
14592;SDS011;7383;52.354;9.756;2023-02-01T01:02:16;14.30;;;4.57;;
14592;SDS011;7383;52.354;9.756;2023-02-01T01:04:43;12.40;;;3.97;;
14592;SDS011;7383;52.354;9.756;2023-02-01T01:07:11;6.68;;;3.13;;
14592;SDS011;7383;52.354;9.756;2023-02-01T01:09:38;9.93;;;3.30;;
14592;SDS011;7383;52.354;9.756;2023-02-01T01:12:04;5.60;;;2.88;;
14592;SDS011;7383;52.354;9.756;2023-02-01T01:14:31;10.45;;;4.03;;
14592;SDS011;7383;52.354;9.756;2023-02-01T01:16:58;9.30;;;3.63;;
14592;SDS011;7383;52.354;9.756;2023-02-01T01:19:24;8.63;;;3.45;;
14592;SDS011;7383;52.354;9.756;2023-02-01T01:21:51;7.78;;;3.17;;
14592;SDS011;7383;52.354;9.756;2023-02-01T01:24:19;10.02;;;3.42;;
14592;SDS011;7383;52.354;9.756;2023-02-01T01:26:46;6.85;;;3.22;;
14592;SDS011;7383;52.354;9.756;2023-02-01T01:29:13;11.77;;;3.83;;
14592;SDS011;7383;52.354;9.756;2023-02-01T01:31:40;8.75;;;3.28;;
14592;SDS011;7383;52.354;9.756;2023-02-01T01:34:06;9.27;;;3.63;;
14592;SDS011;7383;52.354;9.756;2023-02-01T01:36:34;7.00;;;3.03;;
14592;SDS011;7383;52.354;9.756;2023-02-01T01:39:01;6.97;;;2.70;;
14592;SDS011;7383;52.354;9.756;2023-02-01T01:41:30;9.32;;;3.70;;
14592;SDS011;7383;52.354;9.756;2023-02-01T01:43:58;9.48;;;3.45;;
14592;SDS011;7383;52.354;9.756;2023-02-01T01:46:26;9.93;;;2.67;;
14592;SDS011;7383;52.354;9.756;2023-02-01T01:49:00;8.82;;;3.50;;
14592;SDS011;7383;52.354;9.756;2023-02-01T01:51:30;8.73;;;2.58;;
14592;SDS011;7383;52.354;9.756;2023-02-01T01:54:01;9.93;;;3.05;;
14592;SDS011;7383;52.354;9.756;2023-02-01T01:56:31;9.35;;;3.78;;
14592;SDS011;7383;52.354;9.756;2023-02-01T01:59:00;9.25;;;3.15;;
14592;SDS011;7383;52.354;9.756;2023-02-01T02:01:28;7.18;;;2.90;;
14592;SDS011;7383;52.354;9.756;2023-02-01T02:03:54;8.38;;;2.90;;
14592;SDS011;7383;52.354;9.756;2023-02-01T02:06:34;8.77;;;3.60;;
14592;SDS011;7383;52.354;9.756;2023-02-01T02:09:06;6.32;;;2.95;;
14592;SDS011;7383;52.354;9.756;2023-02-01T02:11:34;8.43;;;2.90;;
14592;SDS011;7383;52.354;9.756;2023-02-01T02:14:01;7.53;;;2.65;;
14592;SDS011;7383;52.354;9.756;2023-02-01T02:16:38;6.60;;;2.20;;
14592;SDS011;7383;52.354;9.756;2023-02-01T02:22:42;5.18;;;2.50;;
14592;SDS011;7383;52.354;9.756;2023-02-01T02:25:42;8.52;;;3.58;;
14592;SDS011;7383;52.354;9.756;2023-02-01T02:31:25;8.13;;;2.63;;
14592;SDS011;7383;52.354;9.756;2023-02-01T02:34:12;8.40;;;3.10;;
14592;SDS011;7383;52.354;9.756;2023-02-01T02:36:44;8.85;;;2.80;;
14592;SDS011;7383;52.354;9.756;2023-02-01T02:39:20;7.18;;;2.42;;
14592;SDS011;7383;52.354;9.756;2023-02-01T02:41:53;9.23;;;3.38;;
14592;SDS011;7383;52.354;9.756;2023-02-01T02:44:45;7.47;;;2.95;;
14592;SDS011;7383;52.354;9.756;2023-02-01T02:47:34;6.45;;;2.75;;
14592;SDS011;7383;52.354;9.756;2023-02-01T02:50:14;8.05;;;3.47;;
14592;SDS011;7383;52.354;9.756;2023-02-01T02:53:06;6.82;;;2.85;;
14592;SDS011;7383;52.354;9.756;2023-02-01T02:55:53;9.25;;;2.90;;
14592;SDS011;7383;52.354;9.756;2023-02-01T02:58:38;11.00;;;2.80;;
14592;SDS011;7383;52.354;9.756;2023-02-01T03:01:23;9.02;;;3.63;;
14592;SDS011;7383;52.354;9.756;2023-02-01T03:04:08;9.60;;;3.45;;
14592;SDS011;7383;52.354;9.756;2023-02-01T03:06:38;7.30;;;2.65;;
14592;SDS011;7383;52.354;9.756;2023-02-01T03:09:06;7.00;;;2.47;;
14592;SDS011;7383;52.354;9.756;2023-02-01T03:11:39;6.07;;;2.38;;
14592;SDS011;7383;52.354;9.756;2023-02-01T03:14:26;8.23;;;2.88;;
14592;SDS011;7383;52.354;9.756;2023-02-01T03:16:57;6.68;;;3.00;;
14592;SDS011;7383;52.354;9.756;2023-02-01T03:19:31;5.00;;;2.47;;
14592;SDS011;7383;52.354;9.756;2023-02-01T03:22:02;7.57;;;2.90;;
14592;SDS011;7383;52.354;9.756;2023-02-01T03:24:31;7.72;;;2.90;;
14592;SDS011;7383;52.354;9.756;2023-02-01T03:27:01;9.50;;;3.05;;
14592;SDS011;7383;52.354;9.756;2023-02-01T03:32:01;7.53;;;2.72;;
14592;SDS011;7383;52.354;9.756;2023-02-01T03:34:28;9.18;;;2.92;;
14592;SDS011;7383;52.354;9.756;2023-02-01T03:36:56;8.73;;;3.35;;
14592;SDS011;7383;52.354;9.756;2023-02-01T03:39:29;8.30;;;3.53;;
14592;SDS011;7383;52.354;9.756;2023-02-01T03:41:59;7.65;;;2.78;;
14592;SDS011;7383;52.354;9.756;2023-02-01T03:44:29;7.65;;;3.00;;
14592;SDS011;7383;52.354;9.756;2023-02-01T03:46:59;9.85;;;3.75;;
14592;SDS011;7383;52.354;9.756;2023-02-01T03:49:33;8.75;;;3.20;;
14592;SDS011;7383;52.354;9.756;2023-02-01T03:52:02;10.13;;;3.10;;
14592;SDS011;7383;52.354;9.756;2023-02-01T03:54:32;11.18;;;3.38;;
14592;SDS011;7383;52.354;9.756;2023-02-01T03:57:03;9.05;;;3.75;;
14592;SDS011;7383;52.354;9.756;2023-02-01T03:59:33;10.73;;;3.38;;
14592;SDS011;7383;52.354;9.756;2023-02-01T04:02:03;6.53;;;2.80;;
14592;SDS011;7383;52.354;9.756;2023-02-01T04:04:30;10.00;;;3.78;;
14592;SDS011;7383;52.354;9.756;2023-02-01T04:06:57;10.93;;;3.58;;
14592;SDS011;7383;52.354;9.756;2023-02-01T04:09:23;8.00;;;3.75;;
14592;SDS011;7383;52.354;9.756;2023-02-01T04:11:53;7.18;;;2.75;;
14592;SDS011;7383;52.354;9.756;2023-02-01T04:14:20;8.25;;;3.22;;
14592;SDS011;7383;52.354;9.756;2023-02-01T04:16:46;8.50;;;3.30;;
14592;SDS011;7383;52.354;9.756;2023-02-01T04:19:15;9.80;;;3.47;;
14592;SDS011;7383;52.354;9.756;2023-02-01T04:21:42;12.73;;;4.38;;
14592;SDS011;7383;52.354;9.756;2023-02-01T04:24:09;9.38;;;3.47;;
14592;SDS011;7383;52.354;9.756;2023-02-01T04:26:35;7.22;;;3.03;;
14592;SDS011;7383;52.354;9.756;2023-02-01T04:29:04;12.02;;;4.03;;
14592;SDS011;7383;52.354;9.756;2023-02-01T04:31:30;9.65;;;3.42;;
14592;SDS011;7383;52.354;9.756;2023-02-01T04:33:57;11.80;;;3.67;;
14592;SDS011;7383;52.354;9.756;2023-02-01T04:36:26;10.75;;;3.72;;
14592;SDS011;7383;52.354;9.756;2023-02-01T04:38:52;8.20;;;3.22;;
14592;SDS011;7383;52.354;9.756;2023-02-01T04:41:19;9.30;;;3.58;;
14592;SDS011;7383;52.354;9.756;2023-02-01T04:43:48;7.55;;;3.28;;
14592;SDS011;7383;52.354;9.756;2023-02-01T04:46:17;9.35;;;3.53;;
14592;SDS011;7383;52.354;9.756;2023-02-01T04:48:44;10.13;;;3.40;;
14592;SDS011;7383;52.354;9.756;2023-02-01T04:51:10;6.18;;;2.70;;
14592;SDS011;7383;52.354;9.756;2023-02-01T04:53:37;8.93;;;3.60;;
14592;SDS011;7383;52.354;9.756;2023-02-01T04:56:06;9.43;;;4.18;;
14592;SDS011;7383;52.354;9.756;2023-02-01T04:58:34;8.80;;;3.50;;
14592;SDS011;7383;52.354;9.756;2023-02-01T05:01:01;7.18;;;3.40;;
14592;SDS011;7383;52.354;9.756;2023-02-01T05:03:34;8.35;;;3.22;;
14592;SDS011;7383;52.354;9.756;2023-02-01T05:06:01;7.85;;;2.85;;
14592;SDS011;7383;52.354;9.756;2023-02-01T05:08:29;8.48;;;3.33;;
14592;SDS011;7383;52.354;9.756;2023-02-01T05:10:55;7.10;;;3.10;;
14592;SDS011;7383;52.354;9.756;2023-02-01T05:13:28;8.82;;;3.30;;
14592;SDS011;7383;52.354;9.756;2023-02-01T05:16:12;9.48;;;2.90;;
14592;SDS011;7383;52.354;9.756;2023-02-01T05:18:40;8.40;;;3.55;;
14592;SDS011;7383;52.354;9.756;2023-02-01T05:21:07;6.70;;;3.00;;
14592;SDS011;7383;52.354;9.756;2023-02-01T05:23:34;5.55;;;2.90;;
14592;SDS011;7383;52.354;9.756;2023-02-01T05:26:21;8.68;;;3.55;;
14592;SDS011;7383;52.354;9.756;2023-02-01T05:28:47;7.05;;;3.20;;
14592;SDS011;7383;52.354;9.756;2023-02-01T05:31:14;7.63;;;3.17;;
14592;SDS011;7383;52.354;9.756;2023-02-01T05:33:43;9.32;;;3.90;;
14592;SDS011;7383;52.354;9.756;2023-02-01T05:36:10;8.82;;;3.25;;
14592;SDS011;7383;52.354;9.756;2023-02-01T05:38:37;8.35;;;3.38;;
14592;SDS011;7383;52.354;9.756;2023-02-01T05:41:04;8.52;;;2.97;;
14592;SDS011;7383;52.354;9.756;2023-02-01T05:43:30;6.45;;;2.92;;
14592;SDS011;7383;52.354;9.756;2023-02-01T05:45:57;8.02;;;3.28;;
14592;SDS011;7383;52.354;9.756;2023-02-01T05:48:24;9.38;;;2.70;;
14592;SDS011;7383;52.354;9.756;2023-02-01T05:50:52;7.22;;;3.35;;
14592;SDS011;7383;52.354;9.756;2023-02-01T05:54:21;7.68;;;2.78;;
14592;SDS011;7383;52.354;9.756;2023-02-01T05:56:06;6.68;;;3.25;;
14592;SDS011;7383;52.354;9.756;2023-02-01T05:58:36;9.60;;;3.20;;
14592;SDS011;7383;52.354;9.756;2023-02-01T06:01:16;10.70;;;3.40;;
14592;SDS011;7383;52.354;9.756;2023-02-01T06:04:29;8.95;;;3.95;;
14592;SDS011;7383;52.354;9.756;2023-02-01T06:07:05;6.47;;;3.35;;
14592;SDS011;7383;52.354;9.756;2023-02-01T06:09:47;7.90;;;3.13;;
14592;SDS011;7383;52.354;9.756;2023-02-01T06:12:29;8.00;;;2.88;;
14592;SDS011;7383;52.354;9.756;2023-02-01T06:14:56;6.28;;;2.55;;
14592;SDS011;7383;52.354;9.756;2023-02-01T06:17:24;8.38;;;3.72;;
14592;SDS011;7383;52.354;9.756;2023-02-01T06:19:51;8.35;;;3.42;;
14592;SDS011;7383;52.354;9.756;2023-02-01T06:22:19;9.25;;;3.10;;
14592;SDS011;7383;52.354;9.756;2023-02-01T06:24:49;6.22;;;2.88;;
14592;SDS011;7383;52.354;9.756;2023-02-01T06:27:15;7.93;;;3.30;;
14592;SDS011;7383;52.354;9.756;2023-02-01T06:29:42;6.03;;;2.92;;
14592;SDS011;7383;52.354;9.756;2023-02-01T06:32:08;7.63;;;3.22;;
14592;SDS011;7383;52.354;9.756;2023-02-01T06:34:36;7.00;;;2.65;;
14592;SDS011;7383;52.354;9.756;2023-02-01T06:37:04;6.10;;;2.67;;
14592;SDS011;7383;52.354;9.756;2023-02-01T06:39:32;6.20;;;2.75;;
14592;SDS011;7383;52.354;9.756;2023-02-01T06:41:59;6.00;;;2.97;;
14592;SDS011;7383;52.354;9.756;2023-02-01T06:44:26;5.75;;;2.70;;
14592;SDS011;7383;52.354;9.756;2023-02-01T06:46:58;6.60;;;2.95;;
14592;SDS011;7383;52.354;9.756;2023-02-01T06:49:25;3.63;;;2.25;;
14592;SDS011;7383;52.354;9.756;2023-02-01T06:51:54;5.78;;;2.30;;
14592;SDS011;7383;52.354;9.756;2023-02-01T06:54:21;4.05;;;2.50;;
14592;SDS011;7383;52.354;9.756;2023-02-01T06:56:49;6.32;;;2.63;;
14592;SDS011;7383;52.354;9.756;2023-02-01T06:59:15;6.55;;;3.13;;
14592;SDS011;7383;52.354;9.756;2023-02-01T07:01:42;4.93;;;2.50;;
14592;SDS011;7383;52.354;9.756;2023-02-01T07:04:09;7.15;;;3.03;;
14592;SDS011;7383;52.354;9.756;2023-02-01T07:06:37;8.60;;;3.72;;
14592;SDS011;7383;52.354;9.756;2023-02-01T07:09:04;12.75;;;5.25;;
14592;SDS011;7383;52.354;9.756;2023-02-01T07:11:31;5.00;;;2.72;;
14592;SDS011;7383;52.354;9.756;2023-02-01T07:13:59;7.00;;;3.35;;
14592;SDS011;7383;52.354;9.756;2023-02-01T07:16:26;10.00;;;3.90;;
14592;SDS011;7383;52.354;9.756;2023-02-01T07:18:53;8.30;;;3.13;;
14592;SDS011;7383;52.354;9.756;2023-02-01T07:21:20;11.85;;;4.00;;
14592;SDS011;7383;52.354;9.756;2023-02-01T07:29:53;7.78;;;2.90;;
14592;SDS011;7383;52.354;9.756;2023-02-01T07:32:33;6.28;;;3.05;;
14592;SDS011;7383;52.354;9.756;2023-02-01T07:35:13;9.52;;;3.90;;
14592;SDS011;7383;52.354;9.756;2023-02-01T07:37:40;14.07;;;4.10;;
14592;SDS011;7383;52.354;9.756;2023-02-01T07:40:07;9.07;;;3.60;;
14592;SDS011;7383;52.354;9.756;2023-02-01T07:42:34;6.90;;;3.40;;
14592;SDS011;7383;52.354;9.756;2023-02-01T07:45:02;7.45;;;3.33;;
14592;SDS011;7383;52.354;9.756;2023-02-01T07:47:29;6.95;;;3.20;;
14592;SDS011;7383;52.354;9.756;2023-02-01T07:49:56;7.60;;;3.30;;
14592;SDS011;7383;52.354;9.756;2023-02-01T07:52:24;8.93;;;3.25;;
14592;SDS011;7383;52.354;9.756;2023-02-01T07:54:53;8.95;;;3.80;;
14592;SDS011;7383;52.354;9.756;2023-02-01T07:57:20;10.68;;;3.53;;
14592;SDS011;7383;52.354;9.756;2023-02-01T07:59:47;8.57;;;3.28;;
14592;SDS011;7383;52.354;9.756;2023-02-01T08:02:32;7.97;;;3.00;;
14592;SDS011;7383;52.354;9.756;2023-02-01T08:04:59;6.72;;;2.55;;
14592;SDS011;7383;52.354;9.756;2023-02-01T08:07:25;7.60;;;2.67;;
14592;SDS011;7383;52.354;9.756;2023-02-01T08:09:52;6.97;;;2.53;;
14592;SDS011;7383;52.354;9.756;2023-02-01T08:12:18;9.40;;;3.15;;
14592;SDS011;7383;52.354;9.756;2023-02-01T08:14:45;5.25;;;2.85;;
14592;SDS011;7383;52.354;9.756;2023-02-01T08:17:14;7.18;;;3.10;;
14592;SDS011;7383;52.354;9.756;2023-02-01T08:19:42;4.50;;;2.83;;
14592;SDS011;7383;52.354;9.756;2023-02-01T08:22:09;9.35;;;3.15;;
14592;SDS011;7383;52.354;9.756;2023-02-01T08:24:35;7.80;;;2.75;;
14592;SDS011;7383;52.354;9.756;2023-02-01T08:27:04;7.28;;;2.80;;
14592;SDS011;7383;52.354;9.756;2023-02-01T08:29:31;7.97;;;2.92;;
14592;SDS011;7383;52.354;9.756;2023-02-01T08:31:57;7.70;;;2.75;;
14592;SDS011;7383;52.354;9.756;2023-02-01T08:34:24;4.10;;;2.60;;
14592;SDS011;7383;52.354;9.756;2023-02-01T08:36:52;8.68;;;3.55;;
14592;SDS011;7383;52.354;9.756;2023-02-01T08:39:37;6.63;;;3.13;;
14592;SDS011;7383;52.354;9.756;2023-02-01T08:42:03;7.22;;;2.70;;
14592;SDS011;7383;52.354;9.756;2023-02-01T08:44:47;11.05;;;3.88;;
14592;SDS011;7383;52.354;9.756;2023-02-01T08:47:14;10.02;;;3.25;;
14592;SDS011;7383;52.354;9.756;2023-02-01T08:49:40;7.32;;;3.25;;
14592;SDS011;7383;52.354;9.756;2023-02-01T08:52:08;7.53;;;2.75;;
14592;SDS011;7383;52.354;9.756;2023-02-01T08:54:35;8.45;;;2.90;;
14592;SDS011;7383;52.354;9.756;2023-02-01T08:57:01;8.70;;;3.40;;
14592;SDS011;7383;52.354;9.756;2023-02-01T08:59:29;6.20;;;2.85;;
14592;SDS011;7383;52.354;9.756;2023-02-01T09:01:55;10.25;;;3.58;;
14592;SDS011;7383;52.354;9.756;2023-02-01T09:11:15;6.32;;;2.20;;
14592;SDS011;7383;52.354;9.756;2023-02-01T09:13:52;7.88;;;3.22;;
14592;SDS011;7383;52.354;9.756;2023-02-01T09:16:22;8.98;;;3.20;;
14592;SDS011;7383;52.354;9.756;2023-02-01T09:22:40;9.60;;;2.65;;
14592;SDS011;7383;52.354;9.756;2023-02-01T09:25:14;6.57;;;2.45;;
14592;SDS011;7383;52.354;9.756;2023-02-01T09:28:05;5.68;;;2.45;;
14592;SDS011;7383;52.354;9.756;2023-02-01T09:30:54;4.97;;;2.25;;
14592;SDS011;7383;52.354;9.756;2023-02-01T09:33:26;8.77;;;2.72;;
14592;SDS011;7383;52.354;9.756;2023-02-01T09:36:03;7.45;;;2.78;;
14592;SDS011;7383;52.354;9.756;2023-02-01T09:38:48;6.75;;;2.40;;
14592;SDS011;7383;52.354;9.756;2023-02-01T09:41:26;7.93;;;3.13;;
14592;SDS011;7383;52.354;9.756;2023-02-01T09:50:49;5.90;;;2.17;;
14592;SDS011;7383;52.354;9.756;2023-02-01T09:53:21;5.88;;;2.53;;
14592;SDS011;7383;52.354;9.756;2023-02-01T09:55:55;5.32;;;1.98;;
14592;SDS011;7383;52.354;9.756;2023-02-01T09:58:27;6.25;;;2.60;;
14592;SDS011;7383;52.354;9.756;2023-02-01T10:03:11;10.77;;;3.20;;
14592;SDS011;7383;52.354;9.756;2023-02-01T10:04:36;5.80;;;2.60;;
14592;SDS011;7383;52.354;9.756;2023-02-01T10:07:10;6.80;;;2.85;;
14592;SDS011;7383;52.354;9.756;2023-02-01T10:10:19;5.35;;;2.38;;
14592;SDS011;7383;52.354;9.756;2023-02-01T10:13:34;6.57;;;2.55;;
14592;SDS011;7383;52.354;9.756;2023-02-01T10:16:30;5.20;;;2.28;;
14592;SDS011;7383;52.354;9.756;2023-02-01T10:19:41;5.80;;;2.53;;
14592;SDS011;7383;52.354;9.756;2023-02-01T10:22:20;7.15;;;2.95;;
14592;SDS011;7383;52.354;9.756;2023-02-01T10:25:58;7.53;;;3.05;;
14592;SDS011;7383;52.354;9.756;2023-02-01T10:28:22;6.75;;;2.80;;
14592;SDS011;7383;52.354;9.756;2023-02-01T10:30:52;7.38;;;2.75;;
14592;SDS011;7383;52.354;9.756;2023-02-01T10:33:30;9.13;;;2.60;;
14592;SDS011;7383;52.354;9.756;2023-02-01T10:39:01;5.32;;;2.40;;
14592;SDS011;7383;52.354;9.756;2023-02-01T10:41:38;4.13;;;2.67;;
14592;SDS011;7383;52.354;9.756;2023-02-01T10:44:07;4.13;;;2.25;;
14592;SDS011;7383;52.354;9.756;2023-02-01T10:46:44;6.38;;;2.58;;
14592;SDS011;7383;52.354;9.756;2023-02-01T10:49:12;6.97;;;2.88;;
14592;SDS011;7383;52.354;9.756;2023-02-01T10:51:57;7.03;;;2.75;;
14592;SDS011;7383;52.354;9.756;2023-02-01T10:54:35;5.88;;;2.55;;
14592;SDS011;7383;52.354;9.756;2023-02-01T10:57:07;3.40;;;1.92;;
14592;SDS011;7383;52.354;9.756;2023-02-01T10:59:34;7.47;;;2.40;;
14592;SDS011;7383;52.354;9.756;2023-02-01T11:02:02;5.95;;;2.63;;
14592;SDS011;7383;52.354;9.756;2023-02-01T11:04:41;5.75;;;2.75;;
14592;SDS011;7383;52.354;9.756;2023-02-01T11:07:15;5.43;;;2.40;;
14592;SDS011;7383;52.354;9.756;2023-02-01T11:09:48;5.53;;;2.58;;
14592;SDS011;7383;52.354;9.756;2023-02-01T11:12:27;5.55;;;2.40;;
14592;SDS011;7383;52.354;9.756;2023-02-01T11:15:00;5.97;;;2.60;;
14592;SDS011;7383;52.354;9.756;2023-02-01T11:17:32;6.80;;;2.78;;
14592;SDS011;7383;52.354;9.756;2023-02-01T11:20:00;6.43;;;2.67;;
14592;SDS011;7383;52.354;9.756;2023-02-01T11:22:31;8.10;;;2.40;;
14592;SDS011;7383;52.354;9.756;2023-02-01T11:24:58;6.55;;;2.67;;
14592;SDS011;7383;52.354;9.756;2023-02-01T11:27:27;6.82;;;2.60;;
14592;SDS011;7383;52.354;9.756;2023-02-01T11:29:55;5.90;;;2.38;;
14592;SDS011;7383;52.354;9.756;2023-02-01T11:32:29;5.45;;;2.28;;
14592;SDS011;7383;52.354;9.756;2023-02-01T11:34:57;5.65;;;2.33;;
14592;SDS011;7383;52.354;9.756;2023-02-01T11:37:27;9.13;;;2.60;;
14592;SDS011;7383;52.354;9.756;2023-02-01T11:43:11;3.88;;;2.40;;
14592;SDS011;7383;52.354;9.756;2023-02-01T11:45:41;4.18;;;2.38;;
14592;SDS011;7383;52.354;9.756;2023-02-01T11:48:20;4.88;;;2.10;;
14592;SDS011;7383;52.354;9.756;2023-02-01T11:50:46;3.10;;;1.80;;
14592;SDS011;7383;52.354;9.756;2023-02-01T11:53:21;4.25;;;2.20;;
14592;SDS011;7383;52.354;9.756;2023-02-01T11:56:00;7.47;;;2.67;;
14592;SDS011;7383;52.354;9.756;2023-02-01T11:58:45;5.75;;;2.55;;
14592;SDS011;7383;52.354;9.756;2023-02-01T12:01:52;4.18;;;2.25;;
14592;SDS011;7383;52.354;9.756;2023-02-01T12:07:27;4.65;;;1.98;;
14592;SDS011;7383;52.354;9.756;2023-02-01T12:10:02;8.32;;;2.55;;
14592;SDS011;7383;52.354;9.756;2023-02-01T12:12:40;5.40;;;2.60;;
14592;SDS011;7383;52.354;9.756;2023-02-01T12:18:17;5.20;;;2.45;;
14592;SDS011;7383;52.354;9.756;2023-02-01T12:21:06;5.18;;;2.83;;
14592;SDS011;7383;52.354;9.756;2023-02-01T12:23:49;7.05;;;2.50;;
14592;SDS011;7383;52.354;9.756;2023-02-01T12:26:40;4.57;;;2.28;;
14592;SDS011;7383;52.354;9.756;2023-02-01T12:32:09;6.47;;;2.70;;
14592;SDS011;7383;52.354;9.756;2023-02-01T12:34:59;4.22;;;2.28;;
14592;SDS011;7383;52.354;9.756;2023-02-01T12:37:47;4.38;;;2.63;;
14592;SDS011;7383;52.354;9.756;2023-02-01T12:40:28;5.97;;;2.65;;
14592;SDS011;7383;52.354;9.756;2023-02-01T12:43:12;4.53;;;2.13;;
14592;SDS011;7383;52.354;9.756;2023-02-01T12:45:49;5.07;;;2.72;;
14592;SDS011;7383;52.354;9.756;2023-02-01T12:48:25;6.93;;;2.50;;
14592;SDS011;7383;52.354;9.756;2023-02-01T12:50:56;6.28;;;2.75;;
14592;SDS011;7383;52.354;9.756;2023-02-01T12:53:28;6.72;;;2.40;;
14592;SDS011;7383;52.354;9.756;2023-02-01T12:56:03;4.97;;;2.33;;
14592;SDS011;7383;52.354;9.756;2023-02-01T12:58:38;5.22;;;2.10;;
14592;SDS011;7383;52.354;9.756;2023-02-01T13:01:09;6.32;;;2.33;;
14592;SDS011;7383;52.354;9.756;2023-02-01T13:03:44;4.32;;;2.42;;
14592;SDS011;7383;52.354;9.756;2023-02-01T13:06:26;4.22;;;1.80;;
14592;SDS011;7383;52.354;9.756;2023-02-01T13:09:00;6.57;;;2.20;;
14592;SDS011;7383;52.354;9.756;2023-02-01T13:11:31;6.35;;;1.88;;
14592;SDS011;7383;52.354;9.756;2023-02-01T13:14:38;5.40;;;1.90;;
14592;SDS011;7383;52.354;9.756;2023-02-01T13:16:56;3.92;;;2.00;;
14592;SDS011;7383;52.354;9.756;2023-02-01T13:19:28;5.18;;;2.08;;
14592;SDS011;7383;52.354;9.756;2023-02-01T13:22:05;1.90;;;1.30;;
14592;SDS011;7383;52.354;9.756;2023-02-01T13:24:39;3.05;;;1.50;;
14592;SDS011;7383;52.354;9.756;2023-02-01T13:27:11;3.55;;;1.40;;
14592;SDS011;7383;52.354;9.756;2023-02-01T13:29:40;2.95;;;1.85;;
14592;SDS011;7383;52.354;9.756;2023-02-01T13:35:37;4.32;;;1.70;;
14592;SDS011;7383;52.354;9.756;2023-02-01T13:38:26;1.35;;;0.98;;
14592;SDS011;7383;52.354;9.756;2023-02-01T13:41:11;0.73;;;0.63;;
14592;SDS011;7383;52.354;9.756;2023-02-01T13:43:52;0.80;;;0.30;;
14592;SDS011;7383;52.354;9.756;2023-02-01T13:46:25;0.10;;;0.10;;
14592;SDS011;7383;52.354;9.756;2023-02-01T13:48:53;0.28;;;0.28;;
14592;SDS011;7383;52.354;9.756;2023-02-01T13:54:07;0.30;;;0.30;;
14592;SDS011;7383;52.354;9.756;2023-02-01T13:56:51;0.88;;;0.50;;
14592;SDS011;7383;52.354;9.756;2023-02-01T13:59:36;1.33;;;0.90;;
14592;SDS011;7383;52.354;9.756;2023-02-01T14:08:39;0.85;;;0.50;;
14592;SDS011;7383;52.354;9.756;2023-02-01T14:26:07;0.20;;;0.20;;
14592;SDS011;7383;52.354;9.756;2023-02-01T14:28:38;0.28;;;0.28;;
14592;SDS011;7383;52.354;9.756;2023-02-01T14:31:16;0.38;;;0.30;;
14592;SDS011;7383;52.354;9.756;2023-02-01T14:33:57;0.20;;;0.10;;
14592;SDS011;7383;52.354;9.756;2023-02-01T14:36:40;0.55;;;0.40;;
14592;SDS011;7383;52.354;9.756;2023-02-01T14:39:20;0.63;;;0.60;;
14592;SDS011;7383;52.354;9.756;2023-02-01T14:41:55;1.15;;;0.50;;
14592;SDS011;7383;52.354;9.756;2023-02-01T14:44:27;0.73;;;0.40;;
14592;SDS011;7383;52.354;9.756;2023-02-01T14:53:13;0.32;;;0.30;;
14592;SDS011;7383;52.354;9.756;2023-02-01T14:55:49;1.30;;;0.63;;
14592;SDS011;7383;52.354;9.756;2023-02-01T14:58:35;1.40;;;0.70;;
14592;SDS011;7383;52.354;9.756;2023-02-01T15:01:17;1.40;;;0.52;;
14592;SDS011;7383;52.354;9.756;2023-02-01T15:03:55;2.10;;;0.80;;
14592;SDS011;7383;52.354;9.756;2023-02-01T15:06:36;0.80;;;0.50;;
14592;SDS011;7383;52.354;9.756;2023-02-01T15:09:07;0.95;;;0.57;;
14592;SDS011;7383;52.354;9.756;2023-02-01T15:11:57;0.55;;;0.40;;
14592;SDS011;7383;52.354;9.756;2023-02-01T15:14:30;1.20;;;0.50;;
14592;SDS011;7383;52.354;9.756;2023-02-01T15:16:58;0.82;;;0.63;;
14592;SDS011;7383;52.354;9.756;2023-02-01T15:19:25;1.63;;;0.70;;
14592;SDS011;7383;52.354;9.756;2023-02-01T15:21:57;1.42;;;0.82;;
14592;SDS011;7383;52.354;9.756;2023-02-01T15:24:27;1.58;;;0.80;;
14592;SDS011;7383;52.354;9.756;2023-02-01T15:27:02;0.70;;;0.50;;
14592;SDS011;7383;52.354;9.756;2023-02-01T15:29:31;2.03;;;1.00;;
14592;SDS011;7383;52.354;9.756;2023-02-01T15:32:15;3.20;;;0.90;;
14592;SDS011;7383;52.354;9.756;2023-02-01T15:34:54;0.98;;;0.65;;
14592;SDS011;7383;52.354;9.756;2023-02-01T15:37:26;1.98;;;0.80;;
14592;SDS011;7383;52.354;9.756;2023-02-01T15:40:02;1.67;;;1.00;;
14592;SDS011;7383;52.354;9.756;2023-02-01T15:42:30;1.40;;;0.93;;
14592;SDS011;7383;52.354;9.756;2023-02-01T15:45:01;2.75;;;1.30;;
14592;SDS011;7383;52.354;9.756;2023-02-01T15:47:28;1.33;;;0.77;;
14592;SDS011;7383;52.354;9.756;2023-02-01T15:49:58;2.38;;;1.02;;
14592;SDS011;7383;52.354;9.756;2023-02-01T15:52:32;1.90;;;1.30;;
14592;SDS011;7383;52.354;9.756;2023-02-01T15:55:03;1.92;;;1.35;;
14592;SDS011;7383;52.354;9.756;2023-02-01T15:57:33;2.75;;;1.23;;
14592;SDS011;7383;52.354;9.756;2023-02-01T16:00:04;3.17;;;1.60;;
14592;SDS011;7383;52.354;9.756;2023-02-01T16:02:34;3.35;;;1.30;;
14592;SDS011;7383;52.354;9.756;2023-02-01T16:05:04;2.05;;;1.35;;
14592;SDS011;7383;52.354;9.756;2023-02-01T16:07:33;2.08;;;1.35;;
14592;SDS011;7383;52.354;9.756;2023-02-01T16:10:00;2.28;;;1.30;;
14592;SDS011;7383;52.354;9.756;2023-02-01T16:12:50;3.10;;;1.55;;
14592;SDS011;7383;52.354;9.756;2023-02-01T16:15:27;4.05;;;1.52;;
14592;SDS011;7383;52.354;9.756;2023-02-01T16:17:54;1.67;;;1.23;;
14592;SDS011;7383;52.354;9.756;2023-02-01T16:20:21;2.83;;;1.60;;
14592;SDS011;7383;52.354;9.756;2023-02-01T16:22:47;4.13;;;1.73;;
14592;SDS011;7383;52.354;9.756;2023-02-01T16:25:14;2.47;;;1.92;;
14592;SDS011;7383;52.354;9.756;2023-02-01T16:27:43;3.63;;;1.85;;
14592;SDS011;7383;52.354;9.756;2023-02-01T16:30:10;4.43;;;1.90;;
14592;SDS011;7383;52.354;9.756;2023-02-01T16:32:38;2.08;;;1.70;;
14592;SDS011;7383;52.354;9.756;2023-02-01T16:35:05;3.03;;;1.80;;
14592;SDS011;7383;52.354;9.756;2023-02-01T16:37:49;4.28;;;1.75;;
14592;SDS011;7383;52.354;9.756;2023-02-01T16:40:17;4.30;;;1.80;;
14592;SDS011;7383;52.354;9.756;2023-02-01T16:42:47;5.10;;;1.90;;
14592;SDS011;7383;52.354;9.756;2023-02-01T16:45:18;4.55;;;2.55;;
14592;SDS011;7383;52.354;9.756;2023-02-01T16:47:46;6.15;;;1.90;;
14592;SDS011;7383;52.354;9.756;2023-02-01T16:50:16;5.50;;;2.05;;
14592;SDS011;7383;52.354;9.756;2023-02-01T16:52:44;3.40;;;1.80;;
14592;SDS011;7383;52.354;9.756;2023-02-01T16:55:11;5.00;;;1.90;;